sensor_id;sensor_type;location;lat;lon;timestamp;temperature;humidity
11748;DHT22;5931;48.832;9.072;2023-05-10T00:00:57;13.00;99.90
11748;DHT22;5931;48.832;9.072;2023-05-10T00:03:23;13.00;99.90
11748;DHT22;5931;48.832;9.072;2023-05-10T00:05:48;12.90;99.90
11748;DHT22;5931;48.832;9.072;2023-05-10T00:08:14;12.90;99.90
11748;DHT22;5931;48.832;9.072;2023-05-10T00:10:40;12.70;99.90
11748;DHT22;5931;48.832;9.072;2023-05-10T00:13:06;12.70;99.90
11748;DHT22;5931;48.832;9.072;2023-05-10T00:15:32;12.60;99.90
11748;DHT22;5931;48.832;9.072;2023-05-10T00:17:57;12.50;99.90
11748;DHT22;5931;48.832;9.072;2023-05-10T00:20:23;12.50;99.90
11748;DHT22;5931;48.832;9.072;2023-05-10T00:22:48;12.40;99.90
11748;DHT22;5931;48.832;9.072;2023-05-10T00:25:14;12.40;99.90
11748;DHT22;5931;48.832;9.072;2023-05-10T00:27:40;12.30;99.90
11748;DHT22;5931;48.832;9.072;2023-05-10T00:30:06;12.30;99.90
11748;DHT22;5931;48.832;9.072;2023-05-10T00:32:32;12.30;99.90
11748;DHT22;5931;48.832;9.072;2023-05-10T00:34:58;12.30;99.90
11748;DHT22;5931;48.832;9.072;2023-05-10T00:37:23;12.30;99.90
11748;DHT22;5931;48.832;9.072;2023-05-10T00:39:49;12.20;99.90
11748;DHT22;5931;48.832;9.072;2023-05-10T00:42:15;12.20;99.90
11748;DHT22;5931;48.832;9.072;2023-05-10T00:44:41;12.20;99.90
11748;DHT22;5931;48.832;9.072;2023-05-10T00:47:07;12.20;99.90
11748;DHT22;5931;48.832;9.072;2023-05-10T00:49:35;12.10;99.90
11748;DHT22;5931;48.832;9.072;2023-05-10T00:52:01;12.10;99.90
11748;DHT22;5931;48.832;9.072;2023-05-10T00:54:28;12.10;99.90
11748;DHT22;5931;48.832;9.072;2023-05-10T00:56:53;12.00;99.90
11748;DHT22;5931;48.832;9.072;2023-05-10T00:59:20;12.00;99.90
11748;DHT22;5931;48.832;9.072;2023-05-10T01:01:46;12.10;99.90
11748;DHT22;5931;48.832;9.072;2023-05-10T01:04:13;12.10;99.90
11748;DHT22;5931;48.832;9.072;2023-05-10T01:06:42;12.10;99.90
11748;DHT22;5931;48.832;9.072;2023-05-10T01:09:08;12.10;99.90
11748;DHT22;5931;48.832;9.072;2023-05-10T01:11:35;12.10;99.90
11748;DHT22;5931;48.832;9.072;2023-05-10T01:14:02;12.10;99.90
11748;DHT22;5931;48.832;9.072;2023-05-10T01:16:29;12.10;99.90
11748;DHT22;5931;48.832;9.072;2023-05-10T01:18:57;12.10;99.90
11748;DHT22;5931;48.832;9.072;2023-05-10T01:34:54;12.00;99.90
11748;DHT22;5931;48.832;9.072;2023-05-10T01:37:25;12.00;99.90
11748;DHT22;5931;48.832;9.072;2023-05-10T01:40:00;12.00;99.90
11748;DHT22;5931;48.832;9.072;2023-05-10T01:42:31;11.90;99.90
11748;DHT22;5931;48.832;9.072;2023-05-10T01:45:22;11.90;99.90
11748;DHT22;5931;48.832;9.072;2023-05-10T01:47:58;11.90;99.90
11748;DHT22;5931;48.832;9.072;2023-05-10T01:50:30;11.90;99.90
11748;DHT22;5931;48.832;9.072;2023-05-10T01:52:58;11.90;99.90
11748;DHT22;5931;48.832;9.072;2023-05-10T01:55:30;11.90;99.90
11748;DHT22;5931;48.832;9.072;2023-05-10T01:58:09;11.90;99.90
11748;DHT22;5931;48.832;9.072;2023-05-10T02:00:36;11.80;99.90
11748;DHT22;5931;48.832;9.072;2023-05-10T02:03:06;11.80;99.90
11748;DHT22;5931;48.832;9.072;2023-05-10T02:05:33;11.70;99.90
11748;DHT22;5931;48.832;9.072;2023-05-10T02:08:01;11.70;99.90
11748;DHT22;5931;48.832;9.072;2023-05-10T02:10:36;11.70;99.90
11748;DHT22;5931;48.832;9.072;2023-05-10T02:13:03;11.60;99.90
11748;DHT22;5931;48.832;9.072;2023-05-10T02:15:30;11.60;99.90
11748;DHT22;5931;48.832;9.072;2023-05-10T02:17:57;11.50;99.90
11748;DHT22;5931;48.832;9.072;2023-05-10T02:20:24;11.50;99.90
11748;DHT22;5931;48.832;9.072;2023-05-10T02:22:52;11.40;99.90
11748;DHT22;5931;48.832;9.072;2023-05-10T02:25:20;11.40;99.90
11748;DHT22;5931;48.832;9.072;2023-05-10T02:27:47;11.40;99.90
11748;DHT22;5931;48.832;9.072;2023-05-10T02:30:14;11.40;99.90
11748;DHT22;5931;48.832;9.072;2023-05-10T02:32:41;11.40;99.90
11748;DHT22;5931;48.832;9.072;2023-05-10T02:35:08;11.40;99.90
11748;DHT22;5931;48.832;9.072;2023-05-10T02:37:35;11.50;99.90
11748;DHT22;5931;48.832;9.072;2023-05-10T02:40:04;11.50;99.90
11748;DHT22;5931;48.832;9.072;2023-05-10T02:42:33;11.50;99.90
11748;DHT22;5931;48.832;9.072;2023-05-10T02:45:02;11.50;99.90
11748;DHT22;5931;48.832;9.072;2023-05-10T02:47:29;11.50;99.90
11748;DHT22;5931;48.832;9.072;2023-05-10T02:49:55;11.40;99.90
11748;DHT22;5931;48.832;9.072;2023-05-10T02:52:28;11.40;99.90
11748;DHT22;5931;48.832;9.072;2023-05-10T02:54:56;11.40;99.90
11748;DHT22;5931;48.832;9.072;2023-05-10T02:57:27;11.40;99.90
11748;DHT22;5931;48.832;9.072;2023-05-10T02:59:54;11.40;99.90
11748;DHT22;5931;48.832;9.072;2023-05-10T03:02:20;11.40;99.90
11748;DHT22;5931;48.832;9.072;2023-05-10T03:04:46;11.50;99.90
11748;DHT22;5931;48.832;9.072;2023-05-10T03:07:12;11.50;99.90
11748;DHT22;5931;48.832;9.072;2023-05-10T03:09:40;11.50;99.90
11748;DHT22;5931;48.832;9.072;2023-05-10T03:12:15;11.50;99.90
11748;DHT22;5931;48.832;9.072;2023-05-10T03:17:15;11.60;99.90
11748;DHT22;5931;48.832;9.072;2023-05-10T03:19:53;11.60;99.90
11748;DHT22;5931;48.832;9.072;2023-05-10T03:22:47;11.60;99.90
11748;DHT22;5931;48.832;9.072;2023-05-10T03:25:15;11.60;99.90
11748;DHT22;5931;48.832;9.072;2023-05-10T03:27:43;11.60;99.90
11748;DHT22;5931;48.832;9.072;2023-05-10T03:30:13;11.60;99.90
11748;DHT22;5931;48.832;9.072;2023-05-10T03:32:39;11.60;99.90
11748;DHT22;5931;48.832;9.072;2023-05-10T03:35:09;11.60;99.90
11748;DHT22;5931;48.832;9.072;2023-05-10T03:37:35;11.60;99.90
11748;DHT22;5931;48.832;9.072;2023-05-10T03:40:02;11.70;99.90
11748;DHT22;5931;48.832;9.072;2023-05-10T03:42:29;11.70;99.90
11748;DHT22;5931;48.832;9.072;2023-05-10T03:44:55;11.70;99.90
11748;DHT22;5931;48.832;9.072;2023-05-10T03:47:21;11.70;99.90
11748;DHT22;5931;48.832;9.072;2023-05-10T03:49:46;11.70;99.90
11748;DHT22;5931;48.832;9.072;2023-05-10T03:52:12;11.60;99.90
11748;DHT22;5931;48.832;9.072;2023-05-10T03:54:38;11.60;99.90
11748;DHT22;5931;48.832;9.072;2023-05-10T03:57:04;11.50;99.90
11748;DHT22;5931;48.832;9.072;2023-05-10T03:59:31;11.50;99.90
11748;DHT22;5931;48.832;9.072;2023-05-10T04:01:56;11.50;99.90
11748;DHT22;5931;48.832;9.072;2023-05-10T04:04:22;11.50;99.90
11748;DHT22;5931;48.832;9.072;2023-05-10T04:06:49;11.60;99.90
11748;DHT22;5931;48.832;9.072;2023-05-10T04:09:15;11.60;99.90
11748;DHT22;5931;48.832;9.072;2023-05-10T04:11:41;11.60;99.90
11748;DHT22;5931;48.832;9.072;2023-05-10T04:14:07;11.60;99.90
11748;DHT22;5931;48.832;9.072;2023-05-10T04:16:33;11.70;99.90
11748;DHT22;5931;48.832;9.072;2023-05-10T04:18:58;11.70;99.90
11748;DHT22;5931;48.832;9.072;2023-05-10T04:21:25;11.70;99.90
11748;DHT22;5931;48.832;9.072;2023-05-10T04:23:50;11.70;99.90
11748;DHT22;5931;48.832;9.072;2023-05-10T04:26:16;11.70;99.90
11748;DHT22;5931;48.832;9.072;2023-05-10T04:28:42;11.70;99.90
11748;DHT22;5931;48.832;9.072;2023-05-10T04:31:09;11.70;99.90
11748;DHT22;5931;48.832;9.072;2023-05-10T04:33:35;11.70;99.90
11748;DHT22;5931;48.832;9.072;2023-05-10T04:36:02;11.80;99.90
11748;DHT22;5931;48.832;9.072;2023-05-10T04:38:28;11.80;99.90
11748;DHT22;5931;48.832;9.072;2023-05-10T04:40:54;11.90;99.90
11748;DHT22;5931;48.832;9.072;2023-05-10T04:43:20;11.90;99.90
11748;DHT22;5931;48.832;9.072;2023-05-10T04:45:45;11.90;99.90
11748;DHT22;5931;48.832;9.072;2023-05-10T04:48:11;12.00;99.90
11748;DHT22;5931;48.832;9.072;2023-05-10T04:50:38;12.00;99.90
11748;DHT22;5931;48.832;9.072;2023-05-10T04:53:04;12.10;99.90
11748;DHT22;5931;48.832;9.072;2023-05-10T04:55:30;12.10;99.90
11748;DHT22;5931;48.832;9.072;2023-05-10T04:57:55;12.10;99.90
11748;DHT22;5931;48.832;9.072;2023-05-10T05:00:23;12.10;99.90
11748;DHT22;5931;48.832;9.072;2023-05-10T05:02:49;12.20;99.90
11748;DHT22;5931;48.832;9.072;2023-05-10T05:05:14;12.30;99.90
11748;DHT22;5931;48.832;9.072;2023-05-10T05:07:40;12.30;99.90
11748;DHT22;5931;48.832;9.072;2023-05-10T05:10:07;12.40;99.90
11748;DHT22;5931;48.832;9.072;2023-05-10T05:12:34;12.40;99.90
11748;DHT22;5931;48.832;9.072;2023-05-10T05:15:00;12.50;99.90
11748;DHT22;5931;48.832;9.072;2023-05-10T05:17:25;12.60;99.90
11748;DHT22;5931;48.832;9.072;2023-05-10T05:19:51;12.70;99.90
11748;DHT22;5931;48.832;9.072;2023-05-10T05:22:17;12.70;99.90
11748;DHT22;5931;48.832;9.072;2023-05-10T05:24:45;12.80;99.90
11748;DHT22;5931;48.832;9.072;2023-05-10T05:27:11;12.90;99.90
11748;DHT22;5931;48.832;9.072;2023-05-10T05:29:36;13.00;99.90
11748;DHT22;5931;48.832;9.072;2023-05-10T05:32:02;13.10;99.90
11748;DHT22;5931;48.832;9.072;2023-05-10T05:34:28;13.10;99.90
11748;DHT22;5931;48.832;9.072;2023-05-10T05:36:54;13.10;99.90
11748;DHT22;5931;48.832;9.072;2023-05-10T05:39:19;13.10;99.90
11748;DHT22;5931;48.832;9.072;2023-05-10T05:41:45;13.10;99.90
11748;DHT22;5931;48.832;9.072;2023-05-10T05:44:11;13.10;99.90
11748;DHT22;5931;48.832;9.072;2023-05-10T05:46:37;13.20;99.90
11748;DHT22;5931;48.832;9.072;2023-05-10T05:49:03;13.30;99.90
11748;DHT22;5931;48.832;9.072;2023-05-10T05:51:29;13.30;99.90
11748;DHT22;5931;48.832;9.072;2023-05-10T05:53:55;13.40;99.90
11748;DHT22;5931;48.832;9.072;2023-05-10T05:56:20;13.40;99.90
11748;DHT22;5931;48.832;9.072;2023-05-10T05:58:50;13.40;99.90
11748;DHT22;5931;48.832;9.072;2023-05-10T06:01:16;13.50;99.90
11748;DHT22;5931;48.832;9.072;2023-05-10T06:03:42;13.60;99.90
11748;DHT22;5931;48.832;9.072;2023-05-10T06:06:07;13.70;99.90
11748;DHT22;5931;48.832;9.072;2023-05-10T06:08:33;13.80;99.90
11748;DHT22;5931;48.832;9.072;2023-05-10T06:11:00;13.90;99.90
11748;DHT22;5931;48.832;9.072;2023-05-10T06:13:25;13.90;99.90
11748;DHT22;5931;48.832;9.072;2023-05-10T06:15:57;13.90;99.90
11748;DHT22;5931;48.832;9.072;2023-05-10T06:18:23;13.80;99.90
11748;DHT22;5931;48.832;9.072;2023-05-10T06:20:49;13.80;99.90
11748;DHT22;5931;48.832;9.072;2023-05-10T06:23:15;13.80;99.90
11748;DHT22;5931;48.832;9.072;2023-05-10T06:25:41;13.80;99.90
11748;DHT22;5931;48.832;9.072;2023-05-10T06:28:07;13.80;99.90
11748;DHT22;5931;48.832;9.072;2023-05-10T06:30:32;14.00;99.90
11748;DHT22;5931;48.832;9.072;2023-05-10T06:32:58;14.10;99.90
11748;DHT22;5931;48.832;9.072;2023-05-10T06:35:24;14.10;99.90
11748;DHT22;5931;48.832;9.072;2023-05-10T06:37:50;14.30;99.90
11748;DHT22;5931;48.832;9.072;2023-05-10T06:40:16;14.60;99.90
11748;DHT22;5931;48.832;9.072;2023-05-10T06:42:42;14.70;99.90
11748;DHT22;5931;48.832;9.072;2023-05-10T06:45:08;14.90;99.90
11748;DHT22;5931;48.832;9.072;2023-05-10T06:47:34;14.80;99.90
11748;DHT22;5931;48.832;9.072;2023-05-10T06:50:00;14.80;99.90
11748;DHT22;5931;48.832;9.072;2023-05-10T06:52:25;14.80;99.90
11748;DHT22;5931;48.832;9.072;2023-05-10T06:54:51;14.80;99.90
11748;DHT22;5931;48.832;9.072;2023-05-10T06:57:17;14.80;99.90
11748;DHT22;5931;48.832;9.072;2023-05-10T06:59:43;14.90;99.90
11748;DHT22;5931;48.832;9.072;2023-05-10T07:02:09;14.90;99.90
11748;DHT22;5931;48.832;9.072;2023-05-10T07:04:34;14.90;99.90
11748;DHT22;5931;48.832;9.072;2023-05-10T07:07:00;15.10;99.90
11748;DHT22;5931;48.832;9.072;2023-05-10T07:09:26;15.10;99.90
11748;DHT22;5931;48.832;9.072;2023-05-10T07:11:52;15.30;99.90
11748;DHT22;5931;48.832;9.072;2023-05-10T07:14:17;15.50;99.90
11748;DHT22;5931;48.832;9.072;2023-05-10T07:16:43;15.60;99.90
11748;DHT22;5931;48.832;9.072;2023-05-10T07:19:09;15.70;99.90
11748;DHT22;5931;48.832;9.072;2023-05-10T07:21:35;15.70;99.90
11748;DHT22;5931;48.832;9.072;2023-05-10T07:24:01;16.00;99.90
11748;DHT22;5931;48.832;9.072;2023-05-10T07:26:27;16.30;99.90
11748;DHT22;5931;48.832;9.072;2023-05-10T07:28:52;16.50;99.90
11748;DHT22;5931;48.832;9.072;2023-05-10T07:31:18;16.30;99.90
11748;DHT22;5931;48.832;9.072;2023-05-10T07:33:44;16.50;99.90
11748;DHT22;5931;48.832;9.072;2023-05-10T07:36:09;16.70;99.90
11748;DHT22;5931;48.832;9.072;2023-05-10T07:38:35;16.80;99.90
11748;DHT22;5931;48.832;9.072;2023-05-10T07:41:01;17.00;99.90
11748;DHT22;5931;48.832;9.072;2023-05-10T07:43:26;17.10;99.90
11748;DHT22;5931;48.832;9.072;2023-05-10T07:45:52;17.20;99.90
11748;DHT22;5931;48.832;9.072;2023-05-10T07:48:18;17.30;99.90
11748;DHT22;5931;48.832;9.072;2023-05-10T07:50:43;17.50;99.90
11748;DHT22;5931;48.832;9.072;2023-05-10T07:53:09;17.50;99.90
11748;DHT22;5931;48.832;9.072;2023-05-10T07:55:35;17.50;99.90
11748;DHT22;5931;48.832;9.072;2023-05-10T07:58:00;17.20;99.90
11748;DHT22;5931;48.832;9.072;2023-05-10T08:00:26;17.20;99.90
11748;DHT22;5931;48.832;9.072;2023-05-10T08:02:52;17.00;99.90
11748;DHT22;5931;48.832;9.072;2023-05-10T08:05:18;16.90;99.90
11748;DHT22;5931;48.832;9.072;2023-05-10T08:07:44;16.90;99.90
11748;DHT22;5931;48.832;9.072;2023-05-10T08:10:11;16.70;99.90
11748;DHT22;5931;48.832;9.072;2023-05-10T08:12:37;16.50;99.90
11748;DHT22;5931;48.832;9.072;2023-05-10T08:15:03;16.60;99.90
11748;DHT22;5931;48.832;9.072;2023-05-10T08:17:29;16.60;99.90
11748;DHT22;5931;48.832;9.072;2023-05-10T08:19:54;16.70;99.90
11748;DHT22;5931;48.832;9.072;2023-05-10T08:22:20;16.60;99.90
11748;DHT22;5931;48.832;9.072;2023-05-10T08:24:46;16.50;99.90
11748;DHT22;5931;48.832;9.072;2023-05-10T08:27:11;16.70;99.90
11748;DHT22;5931;48.832;9.072;2023-05-10T08:29:37;16.90;99.90
11748;DHT22;5931;48.832;9.072;2023-05-10T08:32:03;16.70;99.90
11748;DHT22;5931;48.832;9.072;2023-05-10T08:34:29;16.60;99.90
11748;DHT22;5931;48.832;9.072;2023-05-10T08:36:56;16.50;99.90
11748;DHT22;5931;48.832;9.072;2023-05-10T08:39:22;16.40;99.90
11748;DHT22;5931;48.832;9.072;2023-05-10T08:41:51;16.40;99.90
11748;DHT22;5931;48.832;9.072;2023-05-10T08:44:19;16.30;99.90
11748;DHT22;5931;48.832;9.072;2023-05-10T08:46:46;16.50;99.90
11748;DHT22;5931;48.832;9.072;2023-05-10T08:49:17;16.60;99.90
11748;DHT22;5931;48.832;9.072;2023-05-10T08:51:49;16.40;99.90
11748;DHT22;5931;48.832;9.072;2023-05-10T08:54:15;16.30;99.90
11748;DHT22;5931;48.832;9.072;2023-05-10T08:56:41;16.50;99.90
11748;DHT22;5931;48.832;9.072;2023-05-10T08:59:07;16.80;99.90
11748;DHT22;5931;48.832;9.072;2023-05-10T09:01:35;17.40;99.90
11748;DHT22;5931;48.832;9.072;2023-05-10T09:04:02;17.90;99.90
11748;DHT22;5931;48.832;9.072;2023-05-10T09:06:28;17.90;99.90
11748;DHT22;5931;48.832;9.072;2023-05-10T09:08:54;18.20;99.90
11748;DHT22;5931;48.832;9.072;2023-05-10T09:11:21;18.40;99.90
11748;DHT22;5931;48.832;9.072;2023-05-10T09:13:48;18.20;99.90
11748;DHT22;5931;48.832;9.072;2023-05-10T09:16:16;18.00;99.90
11748;DHT22;5931;48.832;9.072;2023-05-10T09:18:41;17.40;99.90
11748;DHT22;5931;48.832;9.072;2023-05-10T09:21:07;17.00;99.90
11748;DHT22;5931;48.832;9.072;2023-05-10T09:23:33;16.90;99.90
11748;DHT22;5931;48.832;9.072;2023-05-10T09:26:03;16.70;99.90
11748;DHT22;5931;48.832;9.072;2023-05-10T09:28:54;16.70;99.90
11748;DHT22;5931;48.832;9.072;2023-05-10T09:31:21;16.70;99.90
11748;DHT22;5931;48.832;9.072;2023-05-10T09:33:48;16.80;99.90
11748;DHT22;5931;48.832;9.072;2023-05-10T09:36:14;16.80;99.90
11748;DHT22;5931;48.832;9.072;2023-05-10T09:38:52;16.60;99.90
11748;DHT22;5931;48.832;9.072;2023-05-10T09:41:24;16.60;99.90
11748;DHT22;5931;48.832;9.072;2023-05-10T09:43:55;16.60;99.90
11748;DHT22;5931;48.832;9.072;2023-05-10T09:46:22;16.60;99.90
11748;DHT22;5931;48.832;9.072;2023-05-10T09:48:48;16.80;99.90
11748;DHT22;5931;48.832;9.072;2023-05-10T09:51:21;16.70;99.90
11748;DHT22;5931;48.832;9.072;2023-05-10T09:53:47;16.40;99.90
11748;DHT22;5931;48.832;9.072;2023-05-10T09:56:33;16.20;99.90
11748;DHT22;5931;48.832;9.072;2023-05-10T09:59:03;15.90;99.90
11748;DHT22;5931;48.832;9.072;2023-05-10T10:01:29;15.90;99.90
11748;DHT22;5931;48.832;9.072;2023-05-10T10:03:56;16.00;99.90
11748;DHT22;5931;48.832;9.072;2023-05-10T10:06:23;16.30;99.90
11748;DHT22;5931;48.832;9.072;2023-05-10T10:08:50;16.50;99.90
11748;DHT22;5931;48.832;9.072;2023-05-10T10:11:16;16.50;99.90
11748;DHT22;5931;48.832;9.072;2023-05-10T10:13:41;16.60;99.90
11748;DHT22;5931;48.832;9.072;2023-05-10T10:16:08;16.90;99.90
11748;DHT22;5931;48.832;9.072;2023-05-10T10:18:36;17.10;99.90
11748;DHT22;5931;48.832;9.072;2023-05-10T10:21:07;17.50;99.90
11748;DHT22;5931;48.832;9.072;2023-05-10T10:23:34;17.70;99.90
11748;DHT22;5931;48.832;9.072;2023-05-10T10:26:04;17.40;99.90
11748;DHT22;5931;48.832;9.072;2023-05-10T10:31:27;16.90;99.90
11748;DHT22;5931;48.832;9.072;2023-05-10T10:34:00;17.40;99.90
11748;DHT22;5931;48.832;9.072;2023-05-10T10:36:27;17.10;99.90
11748;DHT22;5931;48.832;9.072;2023-05-10T10:39:00;17.10;99.90
11748;DHT22;5931;48.832;9.072;2023-05-10T10:41:28;17.00;99.90
11748;DHT22;5931;48.832;9.072;2023-05-10T10:50:05;17.60;99.90
11748;DHT22;5931;48.832;9.072;2023-05-10T10:52:38;17.90;99.90
11748;DHT22;5931;48.832;9.072;2023-05-10T11:00:22;18.10;99.90
11748;DHT22;5931;48.832;9.072;2023-05-10T11:03:06;17.60;99.90
11748;DHT22;5931;48.832;9.072;2023-05-10T11:05:33;17.50;99.90
11748;DHT22;5931;48.832;9.072;2023-05-10T11:08:10;18.00;99.90
11748;DHT22;5931;48.832;9.072;2023-05-10T11:10:36;18.40;99.90
11748;DHT22;5931;48.832;9.072;2023-05-10T11:13:04;18.40;99.90
11748;DHT22;5931;48.832;9.072;2023-05-10T11:15:40;18.20;99.90
11748;DHT22;5931;48.832;9.072;2023-05-10T11:18:24;17.80;99.90
11748;DHT22;5931;48.832;9.072;2023-05-10T11:20:51;17.60;99.90
11748;DHT22;5931;48.832;9.072;2023-05-10T11:23:18;17.60;99.90
11748;DHT22;5931;48.832;9.072;2023-05-10T11:25:45;17.60;99.90
11748;DHT22;5931;48.832;9.072;2023-05-10T11:28:12;17.70;99.90
11748;DHT22;5931;48.832;9.072;2023-05-10T11:30:39;17.80;99.90
11748;DHT22;5931;48.832;9.072;2023-05-10T11:33:06;18.10;99.90
11748;DHT22;5931;48.832;9.072;2023-05-10T11:35:40;18.10;99.90
11748;DHT22;5931;48.832;9.072;2023-05-10T11:38:11;18.10;99.90
11748;DHT22;5931;48.832;9.072;2023-05-10T11:40:37;18.00;99.90
11748;DHT22;5931;48.832;9.072;2023-05-10T11:43:04;17.60;99.90
11748;DHT22;5931;48.832;9.072;2023-05-10T11:45:34;17.10;99.90
11748;DHT22;5931;48.832;9.072;2023-05-10T11:48:01;17.20;99.90
11748;DHT22;5931;48.832;9.072;2023-05-10T11:50:27;17.20;99.90
11748;DHT22;5931;48.832;9.072;2023-05-10T11:52:53;17.30;99.90
11748;DHT22;5931;48.832;9.072;2023-05-10T11:55:19;17.50;99.90
11748;DHT22;5931;48.832;9.072;2023-05-10T11:57:46;17.60;99.90
11748;DHT22;5931;48.832;9.072;2023-05-10T12:00:14;17.50;99.90
11748;DHT22;5931;48.832;9.072;2023-05-10T12:02:41;17.30;99.90
11748;DHT22;5931;48.832;9.072;2023-05-10T12:05:08;17.30;99.90
11748;DHT22;5931;48.832;9.072;2023-05-10T12:07:34;17.40;99.90
11748;DHT22;5931;48.832;9.072;2023-05-10T12:10:08;17.30;99.90
11748;DHT22;5931;48.832;9.072;2023-05-10T12:12:39;17.20;99.90
11748;DHT22;5931;48.832;9.072;2023-05-10T12:15:05;17.20;99.90
11748;DHT22;5931;48.832;9.072;2023-05-10T12:17:37;16.90;99.90
11748;DHT22;5931;48.832;9.072;2023-05-10T12:22:43;17.60;99.90
11748;DHT22;5931;48.832;9.072;2023-05-10T12:25:09;17.70;99.90
11748;DHT22;5931;48.832;9.072;2023-05-10T12:27:35;17.70;99.90
11748;DHT22;5931;48.832;9.072;2023-05-10T12:30:02;17.90;99.90
11748;DHT22;5931;48.832;9.072;2023-05-10T12:35:26;18.30;99.90
11748;DHT22;5931;48.832;9.072;2023-05-10T12:37:51;18.10;99.90
11748;DHT22;5931;48.832;9.072;2023-05-10T12:40:17;18.10;99.90
11748;DHT22;5931;48.832;9.072;2023-05-10T12:42:42;18.00;99.90
11748;DHT22;5931;48.832;9.072;2023-05-10T12:45:10;18.30;99.90
11748;DHT22;5931;48.832;9.072;2023-05-10T12:47:37;18.80;99.90
11748;DHT22;5931;48.832;9.072;2023-05-10T12:50:03;18.40;99.90
11748;DHT22;5931;48.832;9.072;2023-05-10T12:52:30;18.40;99.90
11748;DHT22;5931;48.832;9.072;2023-05-10T12:54:58;18.30;99.90
11748;DHT22;5931;48.832;9.072;2023-05-10T12:57:24;18.50;99.90
11748;DHT22;5931;48.832;9.072;2023-05-10T12:59:50;18.80;99.90
11748;DHT22;5931;48.832;9.072;2023-05-10T13:02:16;19.10;99.90
11748;DHT22;5931;48.832;9.072;2023-05-10T13:04:44;19.20;99.90
11748;DHT22;5931;48.832;9.072;2023-05-10T13:07:10;19.10;99.90
11748;DHT22;5931;48.832;9.072;2023-05-10T13:09:36;18.70;99.90
11748;DHT22;5931;48.832;9.072;2023-05-10T13:12:02;18.40;99.90
11748;DHT22;5931;48.832;9.072;2023-05-10T13:14:27;18.40;99.90
11748;DHT22;5931;48.832;9.072;2023-05-10T13:16:53;18.40;99.90
11748;DHT22;5931;48.832;9.072;2023-05-10T13:19:19;18.30;99.90
11748;DHT22;5931;48.832;9.072;2023-05-10T13:21:45;18.10;99.90
11748;DHT22;5931;48.832;9.072;2023-05-10T13:24:11;17.90;99.90
11748;DHT22;5931;48.832;9.072;2023-05-10T13:26:40;18.10;99.90
11748;DHT22;5931;48.832;9.072;2023-05-10T13:29:06;18.10;99.90
11748;DHT22;5931;48.832;9.072;2023-05-10T13:31:32;18.00;99.90
11748;DHT22;5931;48.832;9.072;2023-05-10T13:33:57;18.00;99.90
11748;DHT22;5931;48.832;9.072;2023-05-10T13:36:23;18.20;99.90
11748;DHT22;5931;48.832;9.072;2023-05-10T13:38:49;18.50;99.90
11748;DHT22;5931;48.832;9.072;2023-05-10T13:41:14;18.30;99.90
11748;DHT22;5931;48.832;9.072;2023-05-10T13:43:40;18.30;99.90
11748;DHT22;5931;48.832;9.072;2023-05-10T13:46:06;18.20;99.90
11748;DHT22;5931;48.832;9.072;2023-05-10T13:48:31;18.40;99.90
11748;DHT22;5931;48.832;9.072;2023-05-10T13:50:57;18.40;99.90
11748;DHT22;5931;48.832;9.072;2023-05-10T13:53:23;18.40;99.90
11748;DHT22;5931;48.832;9.072;2023-05-10T13:55:49;18.30;99.90
11748;DHT22;5931;48.832;9.072;2023-05-10T13:58:14;17.90;99.90
11748;DHT22;5931;48.832;9.072;2023-05-10T14:00:40;17.80;99.90
11748;DHT22;5931;48.832;9.072;2023-05-10T14:03:05;18.00;99.90
11748;DHT22;5931;48.832;9.072;2023-05-10T14:05:32;17.90;99.90
11748;DHT22;5931;48.832;9.072;2023-05-10T14:07:58;18.00;99.90
11748;DHT22;5931;48.832;9.072;2023-05-10T14:10:23;18.20;99.90
11748;DHT22;5931;48.832;9.072;2023-05-10T14:12:49;18.40;99.90
11748;DHT22;5931;48.832;9.072;2023-05-10T14:15:15;18.60;99.90
11748;DHT22;5931;48.832;9.072;2023-05-10T14:17:41;18.70;99.90
11748;DHT22;5931;48.832;9.072;2023-05-10T14:20:22;18.90;99.90
11748;DHT22;5931;48.832;9.072;2023-05-10T14:22:48;19.30;99.90
11748;DHT22;5931;48.832;9.072;2023-05-10T14:25:14;19.40;99.90
11748;DHT22;5931;48.832;9.072;2023-05-10T14:27:40;19.60;99.90
11748;DHT22;5931;48.832;9.072;2023-05-10T14:30:06;19.80;99.90
11748;DHT22;5931;48.832;9.072;2023-05-10T14:32:32;19.60;99.90
11748;DHT22;5931;48.832;9.072;2023-05-10T14:34:59;19.90;99.90
11748;DHT22;5931;48.832;9.072;2023-05-10T14:37:25;19.70;99.90
11748;DHT22;5931;48.832;9.072;2023-05-10T14:39:51;19.20;99.90
11748;DHT22;5931;48.832;9.072;2023-05-10T14:42:17;19.20;99.90
11748;DHT22;5931;48.832;9.072;2023-05-10T14:44:43;19.20;99.90
11748;DHT22;5931;48.832;9.072;2023-05-10T14:47:08;19.40;99.90
11748;DHT22;5931;48.832;9.072;2023-05-10T14:49:34;19.00;99.90
11748;DHT22;5931;48.832;9.072;2023-05-10T14:52:00;18.60;99.90
11748;DHT22;5931;48.832;9.072;2023-05-10T14:54:25;18.50;99.90
11748;DHT22;5931;48.832;9.072;2023-05-10T14:56:51;18.30;99.90
11748;DHT22;5931;48.832;9.072;2023-05-10T14:59:17;18.40;99.90
11748;DHT22;5931;48.832;9.072;2023-05-10T15:01:43;18.60;99.90
11748;DHT22;5931;48.832;9.072;2023-05-10T15:04:08;18.80;99.90
11748;DHT22;5931;48.832;9.072;2023-05-10T15:06:34;18.90;99.90
11748;DHT22;5931;48.832;9.072;2023-05-10T15:09:01;19.00;99.90
11748;DHT22;5931;48.832;9.072;2023-05-10T15:11:28;19.30;99.90
11748;DHT22;5931;48.832;9.072;2023-05-10T15:13:54;19.00;99.90
11748;DHT22;5931;48.832;9.072;2023-05-10T15:16:20;18.90;99.90
11748;DHT22;5931;48.832;9.072;2023-05-10T15:18:46;18.80;99.90
11748;DHT22;5931;48.832;9.072;2023-05-10T15:21:12;19.00;99.90
11748;DHT22;5931;48.832;9.072;2023-05-10T15:23:37;18.90;99.90
11748;DHT22;5931;48.832;9.072;2023-05-10T15:26:03;18.60;99.90
11748;DHT22;5931;48.832;9.072;2023-05-10T15:28:29;18.40;99.90
11748;DHT22;5931;48.832;9.072;2023-05-10T15:30:55;18.40;99.90
11748;DHT22;5931;48.832;9.072;2023-05-10T15:33:21;18.20;99.90
11748;DHT22;5931;48.832;9.072;2023-05-10T15:35:48;18.00;99.90
11748;DHT22;5931;48.832;9.072;2023-05-10T15:38:14;17.70;99.90
11748;DHT22;5931;48.832;9.072;2023-05-10T15:40:39;17.80;99.90
11748;DHT22;5931;48.832;9.072;2023-05-10T15:43:05;18.00;99.90
11748;DHT22;5931;48.832;9.072;2023-05-10T15:45:31;17.80;99.90
11748;DHT22;5931;48.832;9.072;2023-05-10T15:47:57;17.60;99.90
11748;DHT22;5931;48.832;9.072;2023-05-10T15:50:24;17.80;99.90
11748;DHT22;5931;48.832;9.072;2023-05-10T15:52:50;18.10;99.90
11748;DHT22;5931;48.832;9.072;2023-05-10T15:55:16;18.00;99.90
11748;DHT22;5931;48.832;9.072;2023-05-10T15:57:42;17.90;99.90
11748;DHT22;5931;48.832;9.072;2023-05-10T16:00:09;17.70;99.90
11748;DHT22;5931;48.832;9.072;2023-05-10T16:02:39;17.80;99.90
11748;DHT22;5931;48.832;9.072;2023-05-10T16:05:05;18.00;99.90
11748;DHT22;5931;48.832;9.072;2023-05-10T16:07:31;17.90;99.90
11748;DHT22;5931;48.832;9.072;2023-05-10T16:09:57;18.10;99.90
11748;DHT22;5931;48.832;9.072;2023-05-10T16:12:23;17.90;99.90
11748;DHT22;5931;48.832;9.072;2023-05-10T16:14:49;18.00;99.90
11748;DHT22;5931;48.832;9.072;2023-05-10T16:17:15;17.70;99.90
11748;DHT22;5931;48.832;9.072;2023-05-10T16:19:40;17.90;99.90